Time;durP1;ratioP1;P1;durP2;ratioP2;P2;SDS_P1;SDS_P2;PMS_P1;PMS_P2;Temp;Humidity;BMP_temperature;BMP_pressure;BME280_temperature;BME280_humidity;BME280_pressure;Samples;Min_cycle;Max_cycle;Signal;HPM_P1;HPM_P2
2021/09/19 00:01:17;;;;;;;7.55;4.80;;;;;;;13.39;91.45;99872.09;5114807;27;20508;-79
2021/09/19 00:03:45;;;;;;;8.45;5.40;;;;;;;13.47;91.15;99877.72;5114495;28;20044;-78
2021/09/19 00:06:15;;;;;;;6.65;4.82;;;;;;;13.35;91.58;99884.88;5114720;28;20379;-80
2021/09/19 00:08:45;;;;;;;8.02;5.18;;;;;;;13.38;91.47;99884.63;5114530;28;20039;-80
2021/09/19 00:11:13;;;;;;;6.75;5.15;;;;;;;13.29;91.80;99889.84;5114579;28;20051;-80
2021/09/19 00:13:41;;;;;;;10.18;5.15;;;;;;;13.44;91.52;99883.31;5114367;28;20044;-80
2021/09/19 00:16:10;;;;;;;7.53;5.03;;;;;;;13.22;92.40;99883.25;5114464;28;20051;-80
2021/09/19 00:18:38;;;;;;;7.90;5.30;;;;;;;13.22;92.83;99880.56;5114155;28;20075;-80
2021/09/19 00:21:06;;;;;;;6.82;4.82;;;;;;;13.03;93.46;99887.34;5114140;28;20040;-81
2021/09/19 00:23:35;;;;;;;6.78;4.63;;;;;;;13.30;92.45;99881.69;5114363;28;20424;-80
2021/09/19 00:26:07;;;;;;;7.28;5.13;;;;;;;13.30;92.25;99886.19;5114006;28;20470;-81
2021/09/19 00:28:35;;;;;;;7.78;5.18;;;;;;;13.40;91.66;99879.16;5113972;28;20042;-76
2021/09/19 00:31:04;;;;;;;9.27;5.90;;;;;;;13.35;91.67;99873.31;5113567;28;20437;-76
2021/09/19 00:33:32;;;;;;;7.20;5.22;;;;;;;13.43;91.45;99876.25;5114104;28;20042;-75
2021/09/19 00:36:00;;;;;;;7.82;5.78;;;;;;;13.32;91.92;99878.94;5113150;28;20085;-76
2021/09/19 00:38:31;;;;;;;7.28;5.47;;;;;;;13.31;92.26;99882.53;5113637;28;20063;-75
2021/09/19 00:41:00;;;;;;;7.97;5.53;;;;;;;13.32;92.38;99873.56;5113584;28;20036;-75
2021/09/19 00:43:30;;;;;;;7.50;4.88;;;;;;;13.23;93.02;99882.31;5113744;28;20452;-76
2021/09/19 00:45:58;;;;;;;7.32;5.25;;;;;;;13.22;93.24;99873.44;5113553;28;20036;-75
2021/09/19 00:48:26;;;;;;;7.97;5.53;;;;;;;13.16;93.62;99881.88;5113748;28;20046;-76
2021/09/19 00:50:55;;;;;;;7.63;5.00;;;;;;;13.14;93.82;99882.00;5113392;28;20387;-76
2021/09/19 00:53:23;;;;;;;7.40;5.40;;;;;;;13.08;94.19;99881.63;5113663;28;20455;-76
2021/09/19 00:55:53;;;;;;;7.68;5.63;;;;;;;13.13;94.12;99880.31;5113387;28;20043;-76
2021/09/19 00:58:21;;;;;;;8.25;5.43;;;;;;;13.02;94.59;99888.28;5113884;28;20051;-77
2021/09/19 01:00:52;;;;;;;7.97;5.50;;;;;;;13.05;94.75;99880.03;5113340;28;20054;-76
2021/09/19 01:03:20;;;;;;;8.85;5.43;;;;;;;12.98;95.22;99891.31;5113551;28;20044;-76
2021/09/19 01:05:49;;;;;;;8.02;5.30;;;;;;;12.95;95.54;99878.19;5113069;28;20050;-78
2021/09/19 01:08:19;;;;;;;8.13;5.15;;;;;;;12.87;95.56;99879.59;5113493;28;20071;-77
2021/09/19 01:10:48;;;;;;;8.35;5.43;;;;;;;12.86;95.95;99883.25;5113496;28;20039;-77
2021/09/19 01:13:16;;;;;;;7.63;5.85;;;;;;;12.85;96.04;99886.91;5113465;28;20164;-78
2021/09/19 01:15:45;;;;;;;8.52;5.78;;;;;;;12.99;95.65;99883.16;5113689;28;20063;-78
2021/09/19 01:18:18;;;;;;;10.13;5.82;;;;;;;13.00;95.27;99882.19;5113517;28;20035;-78
2021/09/19 01:20:47;;;;;;;7.20;5.70;;;;;;;12.98;95.54;99875.25;5113405;28;20054;-77
2021/09/19 01:23:16;;;;;;;9.02;5.68;;;;;;;12.99;95.56;99883.16;5113547;28;20036;-77
2021/09/19 01:25:49;;;;;;;8.15;5.82;;;;;;;12.94;95.82;99869.28;5113345;28;20048;-77
2021/09/19 01:28:18;;;;;;;9.63;6.15;;;;;;;12.98;95.94;99873.44;5113237;28;20134;-78
2021/09/19 01:30:47;;;;;;;8.50;5.60;;;;;;;13.01;95.72;99865.16;5113426;28;20494;-77
2021/09/19 01:33:15;;;;;;;7.43;5.78;;;;;;;12.96;95.95;99872.69;5113355;28;20049;-77
2021/09/19 01:35:44;;;;;;;7.03;5.55;;;;;;;12.97;95.74;99869.03;5113189;28;20067;-75
2021/09/19 01:38:12;;;;;;;8.75;6.05;;;;;;;12.98;95.80;99862.72;5112819;28;20051;-77
2021/09/19 01:40:40;;;;;;;6.43;5.32;;;;;;;12.92;96.50;99860.50;5113358;28;20386;-77
2021/09/19 01:43:11;;;;;;;7.30;5.88;;;;;;;12.89;96.71;99856.25;5112690;28;20050;-76
2021/09/19 01:45:40;;;;;;;8.30;6.00;;;;;;;12.89;96.60;99863.41;5112988;28;20039;-76
2021/09/19 01:48:08;;;;;;;9.60;6.70;;;;;;;12.87;97.03;99857.34;5114249;28;20078;-76
2021/09/19 01:50:37;;;;;;;11.77;6.65;;;;;;;12.89;96.79;99856.25;5117381;28;20043;-76
2021/09/19 01:53:05;;;;;;;7.95;6.32;;;;;;;12.86;96.99;99851.13;5116840;28;20126;-76
2021/09/19 01:55:34;;;;;;;9.25;6.40;;;;;;;12.83;97.39;99850.50;5117380;28;20444;-76
2021/09/19 01:58:02;;;;;;;10.70;7.18;;;;;;;12.90;97.14;99849.91;5116680;28;20044;-76
2021/09/19 02:00:32;;;;;;;10.57;6.38;;;;;;;12.89;97.17;99855.38;5117073;28;20490;-76
2021/09/19 02:03:00;;;;;;;7.57;6.13;;;;;;;12.95;96.92;99854.94;5116822;28;20474;-76
2021/09/19 02:05:29;;;;;;;7.75;6.13;;;;;;;12.96;96.91;99853.09;5117130;28;20126;-76
2021/09/19 02:07:58;;;;;;;8.70;6.00;;;;;;;12.93;97.16;99854.16;5116545;28;20064;-76
2021/09/19 02:10:26;;;;;;;8.07;6.53;;;;;;;12.94;97.15;99857.72;5116656;28;20051;-77
2021/09/19 02:12:54;;;;;;;8.68;6.55;;;;;;;12.93;97.21;99847.97;5116762;28;20047;-79
2021/09/19 02:15:23;;;;;;;10.55;6.80;;;;;;;12.93;97.20;99845.28;5116833;28;20054;-80
2021/09/19 02:17:53;;;;;;;11.70;7.35;;;;;;;12.90;97.35;99849.06;5116719;28;20043;-80
2021/09/19 02:20:21;;;;;;;8.65;6.78;;;;;;;12.92;97.17;99860.50;5116553;28;20421;-76
2021/09/19 02:22:49;;;;;;;8.75;6.68;;;;;;;12.92;97.28;99852.47;5116458;28;20050;-76
2021/09/19 02:25:19;;;;;;;10.40;6.70;;;;;;;12.88;97.73;99859.88;5116475;28;20135;-79
2021/09/19 02:27:47;;;;;;;8.52;6.50;;;;;;;12.87;97.79;99857.34;5116630;28;20096;-78
2021/09/19 02:30:17;;;;;;;8.70;7.15;;;;;;;12.72;98.38;99853.13;5115981;28;20059;-72
2021/09/19 02:32:45;;;;;;;8.70;6.80;;;;;;;12.80;98.19;99850.72;5116376;28;20043;-73
2021/09/19 02:35:15;;;;;;;11.05;7.32;;;;;;;12.76;98.37;99852.78;5116303;28;20077;-82
2021/09/19 02:37:47;;;;;;;9.00;6.00;;;;;;;12.78;98.21;99850.84;5116673;28;20089;-83
2021/09/19 02:40:17;;;;;;;9.13;6.70;;;;;;;12.80;98.38;99851.59;5116127;28;20044;-78
2021/09/19 02:42:48;;;;;;;8.55;6.15;;;;;;;12.77;98.53;99861.69;5116295;28;20043;-74
2021/09/19 02:45:16;;;;;;;9.63;6.40;;;;;;;12.79;98.38;99865.09;5116175;28;20047;-74
2021/09/19 02:47:45;;;;;;;8.88;7.00;;;;;;;12.74;98.60;99864.56;5116044;28;20443;-74
2021/09/19 02:50:17;;;;;;;7.88;5.80;;;;;;;12.81;98.43;99853.28;5115699;28;20181;-79
2021/09/19 02:52:46;;;;;;;10.38;6.50;;;;;;;12.73;98.84;99855.69;5098156;28;20051;-75
2021/09/19 02:55:15;;;;;;;9.57;7.38;;;;;;;12.77;98.47;99856.31;5115910;28;20040;-78
2021/09/19 02:57:44;;;;;;;8.25;6.05;;;;;;;12.81;98.24;99852.44;5116226;28;20039;-77
2021/09/19 03:00:15;;;;;;;8.43;6.57;;;;;;;12.80;98.11;99864.97;5114683;28;20043;-78
2021/09/19 03:02:44;;;;;;;8.30;5.90;;;;;;;12.85;97.98;99861.97;5116037;28;20047;-78
2021/09/19 03:05:13;;;;;;;8.35;6.60;;;;;;;12.73;98.47;99857.50;5115548;28;20119;-78
2021/09/19 03:07:43;;;;;;;8.55;6.28;;;;;;;12.73;98.87;99865.53;5115835;28;20039;-78
2021/09/19 03:10:14;;;;;;;8.13;6.35;;;;;;;12.80;98.40;99864.97;5115371;28;20089;-77
2021/09/19 03:12:43;;;;;;;8.52;6.15;;;;;;;12.63;99.26;99861.84;5115691;28;20075;-79
2021/09/19 03:15:12;;;;;;;9.32;6.88;;;;;;;12.47;100.00;99863.00;5115275;28;20040;-78
2021/09/19 03:17:41;;;;;;;7.90;5.78;;;;;;;12.61;99.33;99857.47;5115380;28;20118;-78
2021/09/19 03:20:12;;;;;;;8.57;6.18;;;;;;;12.59;99.82;99859.41;5115134;28;20047;-79
2021/09/19 03:22:42;;;;;;;12.80;6.95;;;;;;;12.51;100.00;99853.75;5115679;28;20043;-78
2021/09/19 03:25:12;;;;;;;8.73;6.32;;;;;;;12.60;100.00;99850.41;5115432;28;20047;-75
2021/09/19 03:27:40;;;;;;;8.93;6.35;;;;;;;12.58;100.00;99849.69;5115389;28;20096;-77
2021/09/19 03:30:11;;;;;;;10.18;6.63;;;;;;;12.57;100.00;99856.00;5114776;28;20138;-75
2021/09/19 03:32:41;;;;;;;8.73;6.97;;;;;;;12.56;100.00;99856.97;5115377;28;20131;-78
2021/09/19 03:35:11;;;;;;;8.63;6.90;;;;;;;12.55;100.00;99852.59;5114971;28;20039;-78
2021/09/19 03:37:40;;;;;;;9.30;7.32;;;;;;;12.47;100.00;99857.66;5115204;28;20439;-77
2021/09/19 03:40:12;;;;;;;9.88;7.45;;;;;;;12.53;100.00;99841.13;5114942;28;20063;-77
2021/09/19 03:42:41;;;;;;;10.43;7.55;;;;;;;12.64;100.00;99847.50;5115223;28;20089;-76
2021/09/19 03:45:12;;;;;;;10.07;7.20;;;;;;;12.54;100.00;99845.50;5114774;28;20044;-75
2021/09/19 03:47:41;;;;;;;9.15;6.63;;;;;;;12.56;100.00;99842.75;5096989;28;20039;-74
2021/09/19 03:50:10;;;;;;;10.82;7.63;;;;;;;12.50;100.00;99849.38;5114475;28;20405;-75
2021/09/19 03:52:39;;;;;;;10.20;6.95;;;;;;;12.50;100.00;99837.84;5114819;28;20067;-75
2021/09/19 03:55:10;;;;;;;9.88;7.72;;;;;;;12.54;100.00;99844.66;5114720;28;20096;-75
2021/09/19 03:57:38;;;;;;;11.35;7.93;;;;;;;12.55;100.00;99841.88;5114865;28;20040;-77
2021/09/19 04:00:09;;;;;;;9.75;7.13;;;;;;;12.46;100.00;99839.91;5114843;28;20398;-77
2021/09/19 04:02:40;;;;;;;10.63;8.13;;;;;;;12.44;100.00;99847.16;5096762;28;20055;-78
2021/09/19 04:05:10;;;;;;;12.93;9.00;;;;;;;12.45;100.00;99839.97;5114690;28;20043;-73
2021/09/19 04:07:39;;;;;;;11.70;9.07;;;;;;;12.46;100.00;99850.59;5114542;28;20104;-73
2021/09/19 04:10:10;;;;;;;10.88;8.38;;;;;;;12.49;100.00;99853.03;5095977;28;20079;-74
2021/09/19 04:12:40;;;;;;;12.30;8.88;;;;;;;12.52;100.00;99852.78;5114502;28;20067;-73
2021/09/19 04:15:09;;;;;;;11.35;8.30;;;;;;;12.53;100.00;99850.97;5114093;28;20047;-75
2021/09/19 04:17:38;;;;;;;11.07;8.20;;;;;;;12.49;100.00;99855.72;5114331;28;20088;-75
2021/09/19 04:20:09;;;;;;;11.32;9.35;;;;;;;12.44;100.00;99857.00;5114143;28;20379;-75
2021/09/19 04:22:38;;;;;;;11.35;8.10;;;;;;;12.50;100.00;99849.38;5114888;28;20040;-75
2021/09/19 04:25:07;;;;;;;11.82;9.07;;;;;;;12.47;100.00;99857.66;5113841;28;20039;-75
2021/09/19 04:27:37;;;;;;;14.07;9.45;;;;;;;12.48;100.00;99864.72;5114224;28;20036;-80
2021/09/19 04:30:07;;;;;;;11.48;9.07;;;;;;;12.46;100.00;99869.31;5113782;28;20054;-82
2021/09/19 04:32:37;;;;;;;12.55;9.15;;;;;;;12.41;100.00;99870.63;5114243;28;20157;-79
2021/09/19 04:35:06;;;;;;;10.50;8.10;;;;;;;12.47;100.00;99865.69;5113998;28;20050;-79
2021/09/19 04:37:35;;;;;;;12.75;9.43;;;;;;;12.49;100.00;99877.09;5114511;28;20067;-81
2021/09/19 04:40:04;;;;;;;10.30;8.13;;;;;;;12.56;100.00;99866.81;5113697;28;20059;-81
2021/09/19 04:42:33;;;;;;;13.35;9.52;;;;;;;12.55;100.00;99873.13;5114146;28;20111;-80
2021/09/19 04:45:03;;;;;;;12.73;9.00;;;;;;;12.55;100.00;99874.00;5113650;28;20044;-79
2021/09/19 04:47:31;;;;;;;13.07;9.88;;;;;;;12.49;100.00;99866.41;5114128;28;20048;-84
2021/09/19 04:50:00;;;;;;;14.55;9.73;;;;;;;12.48;100.00;99867.38;5113721;28;20039;-84
2021/09/19 04:52:29;;;;;;;12.38;8.82;;;;;;;12.52;100.00;99873.34;5113648;28;20398;-84
2021/09/19 04:54:57;;;;;;;10.95;8.85;;;;;;;12.56;100.00;99865.00;5113604;28;20040;-78
2021/09/19 04:57:25;;;;;;;12.82;9.98;;;;;;;12.51;100.00;99866.28;5113624;28;20566;-78
2021/09/19 04:59:53;;;;;;;12.52;9.73;;;;;;;12.55;100.00;99865.13;5113603;28;20427;-77
2021/09/19 05:02:23;;;;;;;11.88;9.88;;;;;;;12.59;100.00;99856.72;5113248;28;20047;-76
2021/09/19 05:04:51;;;;;;;13.52;9.93;;;;;;;12.62;100.00;99863.66;5113683;28;20043;-79
2021/09/19 05:07:19;;;;;;;13.60;9.68;;;;;;;12.69;100.00;99864.91;5113255;28;20097;-83
2021/09/19 05:09:48;;;;;;;12.75;9.30;;;;;;;12.79;100.00;99862.41;5113677;28;20050;-82
2021/09/19 05:12:16;;;;;;;11.55;8.35;;;;;;;12.77;100.00;99859.84;5113357;28;20040;-82
2021/09/19 05:14:45;;;;;;;11.82;9.68;;;;;;;12.76;100.00;99855.47;5113568;28;20047;-77
2021/09/19 05:17:13;;;;;;;15.00;10.25;;;;;;;12.84;100.00;99870.97;5113041;28;20043;-79
2021/09/19 05:19:43;;;;;;;12.98;9.07;;;;;;;12.91;100.00;99858.78;5113294;28;20040;-80
2021/09/19 05:22:11;;;;;;;12.13;9.60;;;;;;;13.00;100.00;99871.47;5112763;28;20051;-80
2021/09/19 05:24:39;;;;;;;14.48;9.70;;;;;;;13.10;100.00;99869.81;5113257;28;20159;-78
2021/09/19 05:27:07;;;;;;;12.90;8.77;;;;;;;13.22;99.76;99872.53;5113007;28;20089;-79
2021/09/19 05:29:36;;;;;;;11.90;9.23;;;;;;;13.33;99.27;99876.13;5094885;28;20143;-79
2021/09/19 05:32:04;;;;;;;13.85;9.60;;;;;;;13.25;99.51;99873.19;5113084;28;20048;-78
2021/09/19 05:34:32;;;;;;;12.73;9.95;;;;;;;13.32;99.29;99869.06;5113136;28;20074;-79
2021/09/19 05:37:02;;;;;;;12.48;9.82;;;;;;;13.49;98.38;99878.44;5113351;28;20482;-79
2021/09/19 05:39:31;;;;;;;11.45;9.35;;;;;;;13.68;97.27;99881.38;5113326;28;20043;-79
2021/09/19 05:42:00;;;;;;;12.48;8.77;;;;;;;13.73;96.99;99871.16;5113063;28;20039;-79
2021/09/19 05:44:29;;;;;;;10.30;8.27;;;;;;;13.88;96.40;99865.53;5112832;28;20462;-79
2021/09/19 05:46:57;;;;;;;12.63;9.48;;;;;;;14.00;95.88;99872.63;5112984;28;20044;-79
2021/09/19 05:49:25;;;;;;;10.98;8.48;;;;;;;14.14;94.82;99869.66;5094924;28;20795;-79
2021/09/19 05:51:53;;;;;;;10.90;7.53;;;;;;;14.09;94.57;99869.22;5112971;28;20044;-79
2021/09/19 05:54:23;;;;;;;10.70;8.18;;;;;;;14.21;94.66;99865.53;5112692;28;20410;-79
2021/09/19 05:56:52;;;;;;;10.52;8.77;;;;;;;14.28;93.81;99869.41;5113187;28;20432;-75
2021/09/19 05:59:20;;;;;;;9.88;6.47;;;;;;;14.23;94.00;99866.25;5112647;28;20415;-75
2021/09/19 06:01:48;;;;;;;13.05;8.38;;;;;;;14.24;94.01;99864.41;5113036;28;20039;-76
2021/09/19 06:04:17;;;;;;;11.23;8.07;;;;;;;14.23;94.24;99876.97;5112750;28;20039;-75
2021/09/19 06:06:45;;;;;;;10.68;7.72;;;;;;;14.28;93.92;99877.47;5112863;28;20089;-75
2021/09/19 06:09:13;;;;;;;11.15;7.65;;;;;;;14.21;94.26;99868.22;5112524;28;20048;-75
2021/09/19 06:11:43;;;;;;;11.70;8.52;;;;;;;14.29;94.35;99875.63;5112707;28;20486;-76
2021/09/19 06:14:11;;;;;;;13.88;8.45;;;;;;;14.38;93.59;99874.88;5112430;28;20048;-77
2021/09/19 06:16:40;;;;;;;9.65;7.20;;;;;;;14.32;93.63;99878.06;5112935;28;20441;-77
2021/09/19 06:19:08;;;;;;;11.43;7.63;;;;;;;14.35;94.04;99876.94;5112502;28;20100;-76
2021/09/19 06:21:36;;;;;;;10.40;8.40;;;;;;;14.39;93.81;99873.06;5112685;28;20046;-76
2021/09/19 06:24:05;;;;;;;10.27;7.22;;;;;;;14.35;93.77;99872.44;5112678;28;20047;-76
2021/09/19 06:26:33;;;;;;;10.77;8.20;;;;;;;14.33;94.13;99875.25;5112561;28;20540;-76
2021/09/19 06:29:03;;;;;;;11.07;8.88;;;;;;;14.48;93.79;99869.66;5112740;28;20059;-77
2021/09/19 06:31:31;;;;;;;12.73;9.35;;;;;;;14.66;93.00;99872.63;5112251;28;20400;-83
2021/09/19 06:34:00;;;;;;;11.98;9.90;;;;;;;14.71;92.41;99871.28;5112776;28;20126;-83
2021/09/19 06:36:28;;;;;;;11.35;9.60;;;;;;;14.81;92.35;99868.66;5115656;28;20155;-80
2021/09/19 06:38:57;;;;;;;11.13;9.65;;;;;;;15.09;90.17;99856.44;5116249;28;20043;-77
2021/09/19 06:41:25;;;;;;;12.07;9.57;;;;;;;15.08;89.80;99858.28;5116215;28;20078;-79
2021/09/19 06:43:55;;;;;;;11.43;9.13;;;;;;;14.99;90.46;99852.84;5116412;28;20051;-80
2021/09/19 06:46:29;;;;;;;12.25;10.20;;;;;;;15.09;90.75;99859.13;5115969;28;20044;-79
2021/09/19 06:48:58;;;;;;;11.98;10.00;;;;;;;15.24;89.84;99863.19;5098182;28;20052;-79
2021/09/19 06:51:27;;;;;;;10.75;9.10;;;;;;;15.34;89.66;99863.25;5115843;28;20127;-77
2021/09/19 06:53:59;;;;;;;12.10;10.20;;;;;;;15.17;90.21;99862.88;5116235;28;20071;-75
2021/09/19 06:56:27;;;;;;;13.52;10.40;;;;;;;15.14;90.29;99864.94;5115642;28;20047;-75
2021/09/19 06:58:56;;;;;;;12.63;10.20;;;;;;;15.03;91.00;99865.88;5115961;28;20061;-76
2021/09/19 07:01:28;;;;;;;12.02;10.43;;;;;;;15.04;90.64;99869.41;5115575;28;20533;-76
2021/09/19 07:03:56;;;;;;;11.48;9.88;;;;;;;15.08;90.75;99870.88;5115784;28;20035;-75
2021/09/19 07:06:25;;;;;;;12.55;10.02;;;;;;;15.12;90.69;99877.66;5115638;28;20134;-75
2021/09/19 07:08:54;;;;;;;13.43;9.95;;;;;;;15.11;90.04;99873.28;5115834;28;20071;-76
2021/09/19 07:11:25;;;;;;;12.00;9.73;;;;;;;15.17;90.41;99875.47;5115149;28;20047;-79
2021/09/19 07:13:53;;;;;;;9.00;7.03;;;;;;;15.32;90.17;99878.66;5115452;28;20582;-72
2021/09/19 07:16:22;;;;;;;10.88;8.55;;;;;;;15.27;89.89;99887.13;5115257;28;20061;-78
2021/09/19 07:18:52;;;;;;;9.90;8.27;;;;;;;15.36;89.96;99883.66;5115701;28;20497;-81
2021/09/19 07:21:22;;;;;;;10.93;8.88;;;;;;;15.36;88.96;99894.41;5115161;28;20047;-74
2021/09/19 07:23:50;;;;;;;12.85;8.57;;;;;;;15.39;88.91;99887.91;5115375;28;20036;-75
2021/09/19 07:26:19;;;;;;;11.80;8.88;;;;;;;15.31;89.32;99880.50;5115096;28;20046;-77
2021/09/19 07:28:48;;;;;;;10.75;8.40;;;;;;;15.41;88.97;99892.16;5114934;28;20126;-78
2021/09/19 07:31:19;;;;;;;10.85;8.45;;;;;;;15.43;89.07;99886.63;5114192;28;20044;-76
2021/09/19 07:33:48;;;;;;;9.50;7.80;;;;;;;15.50;88.12;99885.13;5096925;28;20105;-75
2021/09/19 07:36:20;;;;;;;9.43;7.00;;;;;;;15.60;88.16;99885.19;5114684;28;20089;-73
2021/09/19 07:38:49;;;;;;;8.45;7.07;;;;;;;15.70;87.52;99886.13;5115337;28;20036;-76
2021/09/19 07:41:18;;;;;;;9.85;7.25;;;;;;;15.69;86.68;99884.44;5114792;28;20044;-75
2021/09/19 07:43:47;;;;;;;8.80;7.25;;;;;;;15.68;87.05;99888.09;5114925;28;20139;-77
2021/09/19 07:46:16;;;;;;;8.60;6.68;;;;;;;15.78;86.78;99883.63;5114216;28;20046;-82
2021/09/19 07:48:45;;;;;;;7.72;6.43;;;;;;;15.85;86.76;99889.31;5114832;28;20379;-76
2021/09/19 07:51:14;;;;;;;9.13;6.80;;;;;;;15.99;84.99;99887.09;5114633;28;20044;-78
2021/09/19 07:53:45;;;;;;;6.10;4.32;;;;;;;16.14;84.68;99890.28;5114808;28;20044;-78
2021/09/19 07:56:14;;;;;;;7.10;5.53;;;;;;;16.06;83.92;99892.81;5114371;28;20044;-74
2021/09/19 07:58:42;;;;;;;5.95;4.38;;;;;;;16.09;83.95;99897.06;5116614;28;20043;-73
2021/09/19 08:01:10;;;;;;;7.20;4.93;;;;;;;16.00;84.41;99899.56;5115367;28;20039;-73
2021/09/19 08:03:39;;;;;;;7.38;5.43;;;;;;;16.07;84.08;99905.25;5114724;28;20054;-71
2021/09/19 08:06:07;;;;;;;6.20;4.50;;;;;;;16.13;83.30;99901.19;5114623;28;20379;-75
2021/09/19 08:08:36;;;;;;;6.40;4.63;;;;;;;16.19;83.46;99900.63;5114258;28;20043;-74
2021/09/19 08:11:05;;;;;;;6.70;5.28;;;;;;;16.28;83.80;99902.50;5114590;28;20039;-71
2021/09/19 08:13:34;;;;;;;7.22;4.75;;;;;;;16.35;81.97;99900.13;5114279;28;20854;-83
2021/09/19 08:16:03;;;;;;;6.13;4.43;;;;;;;16.46;81.56;99903.53;5114512;28;20043;-77
2021/09/19 08:18:31;;;;;;;6.43;4.78;;;;;;;16.58;81.63;99904.28;5114031;28;20063;-72
2021/09/19 08:20:59;;;;;;;5.97;4.60;;;;;;;16.65;80.96;99904.56;5114148;28;20051;-74
2021/09/19 08:23:28;;;;;;;5.93;4.10;;;;;;;16.73;79.65;99905.63;5113833;28;20051;-75
2021/09/19 08:25:56;;;;;;;5.72;3.50;;;;;;;16.78;78.91;99910.56;5114402;28;20051;-73
2021/09/19 08:28:26;;;;;;;5.32;3.22;;;;;;;17.01;78.59;99905.78;5114291;28;20039;-78
2021/09/19 08:30:55;;;;;;;3.92;2.85;;;;;;;17.14;75.64;99901.78;5114432;28;20056;-74
2021/09/19 08:33:27;;;;;;;4.43;2.60;;;;;;;17.16;74.20;99904.34;5114050;28;20050;-77
2021/09/19 08:35:56;;;;;;;5.55;3.08;;;;;;;17.03;74.37;99919.94;5113350;28;20035;-73
2021/09/19 08:38:24;;;;;;;3.05;1.48;;;;;;;17.13;73.70;99905.47;5114198;28;20474;-79
2021/09/19 08:40:53;;;;;;;4.50;2.72;;;;;;;17.32;73.73;99907.31;5113947;28;20048;-78
2021/09/19 08:43:22;;;;;;;3.88;2.55;;;;;;;17.56;71.93;99906.84;5114272;28;20092;-77
2021/09/19 08:45:53;;;;;;;4.95;2.67;;;;;;;17.82;72.02;99914.34;5113550;28;20101;-72
2021/09/19 08:48:22;;;;;;;3.70;2.60;;;;;;;17.48;71.93;99909.44;5113564;28;20042;-69
2021/09/19 08:50:54;;;;;;;4.55;2.97;;;;;;;17.43;73.17;99917.09;5112628;28;20093;-72
2021/09/19 08:53:24;;;;;;;5.35;3.50;;;;;;;17.16;74.05;99918.66;5112474;28;20043;-74
2021/09/19 08:55:53;;;;;;;4.93;3.33;;;;;;;17.28;75.40;99916.69;5112259;28;20059;-76
2021/09/19 08:58:22;;;;;;;5.97;3.03;;;;;;;17.06;73.17;99907.03;5111834;28;20047;-76
2021/09/19 09:00:52;;;;;;;5.30;2.72;;;;;;;17.26;71.70;99915.13;5109600;28;20044;-76
2021/09/19 09:03:23;;;;;;;4.93;2.38;;;;;;;17.20;70.53;99927.34;5113442;28;20114;-75
2021/09/19 09:05:55;;;;;;;3.05;1.90;;;;;;;17.43;70.71;99911.69;5113591;28;20478;-71
2021/09/19 09:08:25;;;;;;;3.25;1.77;;;;;;;17.64;69.13;99912.34;5115175;28;20059;-70
2021/09/19 09:10:55;;;;;;;3.78;2.05;;;;;;;17.85;68.90;99919.44;5113471;28;20044;-69
2021/09/19 09:13:29;;;;;;;4.15;2.45;;;;;;;17.82;67.76;99917.03;5113742;28;20039;-69
2021/09/19 09:16:05;;;;;;;3.40;2.28;;;;;;;17.70;68.98;99914.50;5113002;28;20035;-70
2021/09/19 09:18:37;;;;;;;4.40;2.17;;;;;;;17.67;69.17;99901.31;5113638;28;20127;-69
2021/09/19 09:21:06;;;;;;;4.80;2.50;;;;;;;17.82;69.36;99907.09;5112797;28;20059;-70
2021/09/19 09:23:38;;;;;;;4.78;2.70;;;;;;;17.74;69.55;99910.50;5113472;28;20151;-70
2021/09/19 09:26:18;;;;;;;4.07;2.67;;;;;;;17.65;70.13;99899.72;5112960;28;20375;-70
2021/09/19 09:28:50;;;;;;;6.10;2.85;;;;;;;17.73;69.62;99914.22;5113015;28;20032;-71
2021/09/19 09:31:32;;;;;;;4.90;2.30;;;;;;;17.70;69.33;99914.50;5112989;28;20050;-70
2021/09/19 09:34:03;;;;;;;4.20;2.17;;;;;;;17.69;68.93;99907.41;5113106;28;20050;-70
2021/09/19 09:36:34;;;;;;;2.88;1.83;;;;;;;17.81;67.34;99900.00;5113292;28;20043;-70
2021/09/19 09:39:22;;;;;;;3.00;2.03;;;;;;;17.80;66.72;99902.84;5112605;28;20044;-72
2021/09/19 09:41:50;;;;;;;3.33;2.10;;;;;;;17.93;66.73;99900.66;5113300;28;20050;-72
2021/09/19 09:44:33;;;;;;;3.90;2.28;;;;;;;17.91;65.18;99899.97;5112580;28;20039;-71
2021/09/19 09:47:09;;;;;;;2.55;1.60;;;;;;;17.86;64.56;99884.22;5112689;28;20067;-71
2021/09/19 09:49:44;;;;;;;2.67;1.67;;;;;;;17.92;64.53;99898.97;5113153;28;20130;-71
2021/09/19 09:52:15;;;;;;;2.15;1.45;;;;;;;18.03;64.19;99893.38;5112838;28;20051;-69
2021/09/19 09:54:48;;;;;;;2.22;1.40;;;;;;;18.01;64.53;99893.53;5113207;28;20075;-70
2021/09/19 09:57:26;;;;;;;;;;;;;;;18.14;63.16;99892.31;5113103;28;20881;-70
2021/09/19 09:59:56;;;;;;;2.80;1.60;;;;;;;18.26;62.73;99900.09;5113175;28;19920;-71
2021/09/19 10:02:27;;;;;;;5.35;1.80;;;;;;;18.66;62.06;99890.78;5113033;28;20048;-71
2021/09/19 10:04:57;;;;;;;5.25;2.10;;;;;;;18.90;62.05;99890.19;5112990;28;20040;-72
2021/09/19 10:07:26;;;;;;;3.90;2.17;;;;;;;19.33;61.31;99888.53;5112833;28;20044;-70
2021/09/19 10:09:54;;;;;;;1.90;1.40;;;;;;;19.06;60.55;99894.91;5115719;28;20221;-71
2021/09/19 10:12:22;;;;;;;3.25;1.45;;;;;;;18.81;61.59;99894.66;5116523;28;20044;-72
2021/09/19 10:14:53;;;;;;;1.80;1.38;;;;;;;18.65;61.16;99894.50;5099015;28;20063;-73
2021/09/19 10:17:22;;;;;;;2.97;1.67;;;;;;;18.53;61.88;99899.25;5116474;28;20078;-73
2021/09/19 10:19:55;;;;;;;4.68;1.67;;;;;;;18.23;62.29;99894.97;5117044;28;20101;-73
2021/09/19 10:22:27;;;;;;;3.63;1.58;;;;;;;18.36;62.20;99904.59;5116541;28;20036;-74
2021/09/19 10:24:55;;;;;;;2.60;1.60;;;;;;;18.37;61.88;99900.91;5116439;28;20043;-74
2021/09/19 10:27:31;;;;;;;4.07;1.63;;;;;;;18.47;62.83;99902.53;5116594;28;20044;-76
2021/09/19 10:30:01;;;;;;;3.40;1.80;;;;;;;18.65;61.23;99899.91;5109393;28;20056;-76
2021/09/19 10:32:35;;;;;;;1.60;1.27;;;;;;;18.51;60.99;99897.69;5116509;28;20081;-74
2021/09/19 10:35:28;;;;;;;3.08;1.70;;;;;;;18.53;61.56;99890.28;5115874;28;20286;-71
2021/09/19 10:38:03;;;;;;;2.50;1.45;;;;;;;18.73;61.37;99896.44;5115054;28;20505;-71
2021/09/19 10:40:37;;;;;;;2.42;1.63;;;;;;;19.03;61.18;99897.91;5115761;28;20042;-70
2021/09/19 10:43:07;;;;;;;3.78;1.48;;;;;;;18.67;61.74;99897.91;5115888;28;20143;-71
2021/09/19 10:45:42;;;;;;;8.20;2.42;;;;;;;18.78;62.19;99900.38;5115765;28;20768;-70
2021/09/19 10:48:14;;;;;;;2.75;1.63;;;;;;;18.72;61.84;99910.94;5115812;28;20059;-73
2021/09/19 10:50:46;;;;;;;4.03;1.90;;;;;;;18.70;62.05;99897.56;5115600;28;20398;-71
2021/09/19 10:53:23;;;;;;;2.65;1.80;;;;;;;18.85;61.01;99885.25;5115779;28;20040;-72
2021/09/19 10:55:56;;;;;;;4.03;2.03;;;;;;;19.09;60.64;99886.47;5115558;28;20036;-72
2021/09/19 10:58:27;;;;;;;2.97;1.73;;;;;;;19.02;59.75;99880.00;5115253;28;20146;-74
2021/09/19 11:01:13;;;;;;;3.35;1.13;;;;;;;19.11;60.05;99873.66;5115658;28;20475;-71
2021/09/19 11:03:43;;;;;;;2.88;1.60;;;;;;;19.21;59.77;99879.00;5115957;28;20044;-71
2021/09/19 11:06:29;;;;;;;1.80;1.02;;;;;;;19.08;60.69;99868.56;5115650;28;20047;-71
2021/09/19 11:09:00;;;;;;;2.20;1.23;;;;;;;18.90;60.81;99875.81;5115209;28;20393;-70
2021/09/19 11:11:29;;;;;;;5.18;2.40;;;;;;;18.63;61.10;99872.16;5115571;28;20065;-68
2021/09/19 11:14:03;;;;;;;2.25;1.38;;;;;;;18.49;61.86;99873.53;5115582;28;20387;-69
2021/09/19 11:16:35;;;;;;;4.95;2.70;;;;;;;18.48;61.93;99860.19;5115131;28;20062;-68
2021/09/19 11:19:05;;;;;;;2.30;1.15;;;;;;;18.59;61.63;99857.25;5115523;28;20043;-69
2021/09/19 11:21:43;;;;;;;5.63;2.97;;;;;;;18.78;61.09;99857.13;5114905;28;20501;-68
2021/09/19 11:24:13;;;;;;;2.42;1.02;;;;;;;18.54;61.62;99859.59;5115106;28;20043;-66
2021/09/19 11:26:45;;;;;;;2.40;1.50;;;;;;;18.57;60.86;99860.13;5115259;28;20097;-67
2021/09/19 11:29:15;;;;;;;2.13;1.15;;;;;;;18.40;61.09;99862.78;5114994;28;20047;-65
2021/09/19 11:31:45;;;;;;;1.83;1.20;;;;;;;18.54;61.07;99854.19;5115212;28;20044;-68
2021/09/19 11:34:15;;;;;;;1.17;0.90;;;;;;;18.60;60.09;99854.41;5114666;28;20051;-66
2021/09/19 11:36:47;;;;;;;1.80;1.30;;;;;;;18.60;60.27;99858.94;5115656;28;20050;-66
2021/09/19 11:39:17;;;;;;;2.40;1.40;;;;;;;18.54;61.03;99851.47;5115118;28;20547;-65
2021/09/19 11:41:49;;;;;;;2.42;1.00;;;;;;;18.45;59.05;99845.13;5114884;28;20444;-67